Time;durP1;ratioP1;P1;durP2;ratioP2;P2;SDS_P1;SDS_P2;PMS_P1;PMS_P2;Temp;Humidity;BMP_temperature;BMP_pressure;BME280_temperature;BME280_humidity;BME280_pressure;Samples;Min_cycle;Max_cycle;Signal;HPM_P1;HPM_P2
2021/05/10 00:01:46;;;;;;;7.65;3.60;;;;;;;13.12;68.16;92781.94;4992022;28;20037;-77
2021/05/10 00:04:11;;;;;;;6.53;3.33;;;;;;;13.11;68.50;92780.38;5010179;28;20038;-76
2021/05/10 00:06:37;;;;;;;8.07;3.83;;;;;;;13.10;69.09;92780.66;4994823;28;20038;-77
2021/05/10 00:09:05;;;;;;;6.57;3.55;;;;;;;13.09;71.30;92787.00;4991818;28;20500;-77
2021/05/10 00:11:34;;;;;;;6.22;3.45;;;;;;;13.05;72.01;92780.78;5009754;28;20030;-77
2021/05/10 00:14:01;;;;;;;8.35;4.13;;;;;;;12.99;72.20;92779.31;5001564;28;20038;-77
2021/05/10 00:16:27;;;;;;;8.85;4.07;;;;;;;12.97;72.95;92786.72;5000067;28;20141;-77
2021/05/10 00:18:53;;;;;;;7.18;4.25;;;;;;;12.94;73.68;92787.31;4991773;28;21076;-77
2021/05/10 00:21:18;;;;;;;10.52;4.85;;;;;;;12.87;74.54;92780.59;4992508;28;20056;-77
2021/05/10 00:23:44;;;;;;;7.95;4.53;;;;;;;12.85;74.78;92781.94;5010166;28;20030;-77
2021/05/10 00:26:09;;;;;;;8.43;4.72;;;;;;;12.81;75.89;92780.97;5002243;28;20500;-77
2021/05/10 00:28:35;;;;;;;7.45;4.53;;;;;;;12.74;76.39;92773.47;4997963;28;20092;-77
2021/05/10 00:31:01;;;;;;;9.00;4.68;;;;;;;12.70;76.27;92760.19;4992563;28;20033;-77
2021/05/10 00:33:26;;;;;;;7.82;5.22;;;;;;;12.64;79.78;92758.72;4976312;28;20546;-77
2021/05/10 00:35:52;;;;;;;9.57;5.15;;;;;;;12.57;79.03;92760.19;4970357;28;20081;-77
2021/05/10 00:38:18;;;;;;;8.05;4.70;;;;;;;12.50;78.29;92760.56;4990489;28;20386;-77
2021/05/10 00:40:43;;;;;;;8.85;5.65;;;;;;;12.44;78.51;92745.97;5007981;28;20037;-77
2021/05/10 00:43:09;;;;;;;8.00;4.90;;;;;;;12.38;78.60;92747.09;4995892;28;20033;-77
2021/05/10 00:45:35;;;;;;;7.85;5.10;;;;;;;12.33;78.58;92734.09;4995666;28;20432;-77
2021/05/10 00:48:03;;;;;;;9.75;5.30;;;;;;;12.29;78.88;92745.19;5013987;28;20038;-77
2021/05/10 00:50:28;;;;;;;7.85;4.80;;;;;;;12.26;79.52;92737.09;5012596;28;20397;-77
2021/05/10 00:52:54;;;;;;;7.25;4.72;;;;;;;12.20;79.98;92725.88;5014022;28;20093;-77
2021/05/10 00:55:20;;;;;;;9.18;4.82;;;;;;;12.15;80.75;92725.97;5013794;28;20034;-77
2021/05/10 00:57:51;;;;;;;8.30;5.50;;;;;;;12.11;80.94;92732.09;5001772;28;20508;-77
2021/05/10 01:00:20;;;;;;;7.88;5.10;;;;;;;12.05;80.43;92740.06;5011807;28;20030;-77
2021/05/10 01:02:46;;;;;;;8.93;5.22;;;;;;;12.02;79.83;92734.59;4976381;28;20037;-76
2021/05/10 01:05:12;;;;;;;9.60;4.82;;;;;;;11.99;79.42;92735.19;5009013;28;20034;-77
2021/05/10 01:07:38;;;;;;;8.65;5.32;;;;;;;11.98;79.55;92731.00;4999115;28;20400;-76
2021/05/10 01:10:12;;;;;;;6.10;4.47;;;;;;;11.95;79.08;92736.84;4995704;28;20042;-77
2021/05/10 01:12:38;;;;;;;7.47;4.60;;;;;;;11.95;79.03;92728.97;5006780;28;20054;-77
2021/05/10 01:15:10;;;;;;;7.70;4.72;;;;;;;11.94;79.82;92716.91;4993693;28;20034;-77
2021/05/10 01:17:37;;;;;;;7.35;5.00;;;;;;;11.93;81.51;92716.13;5000212;28;20121;-77
2021/05/10 01:20:13;;;;;;;6.97;4.63;;;;;;;11.94;80.16;92719.53;4976192;28;20030;-77
2021/05/10 01:22:49;;;;;;;9.27;4.97;;;;;;;11.95;79.31;92702.72;5009777;28;20045;-77
2021/05/10 01:25:24;;;;;;;6.80;4.68;;;;;;;11.94;79.04;92688.06;5011303;28;20022;-77
2021/05/10 01:27:50;;;;;;;7.22;4.78;;;;;;;11.92;78.99;92685.72;5009757;28;21514;-77
2021/05/10 01:30:23;;;;;;;8.32;4.72;;;;;;;11.91;78.97;92676.31;4993494;28;20062;-77
2021/05/10 01:32:51;;;;;;;7.72;4.60;;;;;;;11.86;79.33;92673.72;4985197;28;20037;-77
2021/05/10 01:35:19;;;;;;;9.13;4.90;;;;;;;11.90;80.63;92681.84;5008213;28;20123;-77
2021/05/10 01:37:45;;;;;;;7.93;4.75;;;;;;;11.87;80.05;92681.34;4995307;28;20042;-77
2021/05/10 01:40:12;;;;;;;8.57;4.78;;;;;;;11.85;80.39;92683.44;5012914;28;20026;-76
2021/05/10 01:42:38;;;;;;;7.97;4.97;;;;;;;11.84;80.27;92681.91;4994625;28;20065;-77
2021/05/10 01:45:09;;;;;;;7.18;4.40;;;;;;;11.85;80.30;92693.16;4989359;28;20092;-77
2021/05/10 01:47:34;;;;;;;6.65;4.60;;;;;;;11.83;79.76;92690.06;4992292;28;20260;-77
2021/05/10 01:50:08;;;;;;;7.70;5.07;;;;;;;11.84;79.66;92695.00;4993595;28;20400;-77
2021/05/10 01:52:34;;;;;;;7.97;4.50;;;;;;;11.83;79.61;92698.69;5002195;28;20433;-77
2021/05/10 01:54:59;;;;;;;12.57;4.85;;;;;;;11.83;80.42;92690.06;5008695;28;20015;-77
2021/05/10 01:57:25;;;;;;;10.13;4.97;;;;;;;11.84;80.20;92699.47;4969447;28;20045;-77
2021/05/10 01:59:50;;;;;;;13.10;4.82;;;;;;;11.86;80.48;92694.72;5012444;28;20472;-77
2021/05/10 02:02:16;;;;;;;7.32;4.80;;;;;;;11.88;80.00;92693.38;5012749;28;20042;-77
2021/05/10 02:05:17;;;;;;;6.72;4.22;;;;;;;11.88;80.55;92688.13;4993757;28;20034;-77
2021/05/10 02:07:51;;;;;;;8.80;4.50;;;;;;;11.87;80.79;92691.03;5008933;28;20077;-77
2021/05/10 02:10:21;;;;;;;7.82;4.53;;;;;;;11.87;80.36;92686.59;4978895;28;20523;-77
2021/05/10 02:12:53;;;;;;;6.68;4.47;;;;;;;11.88;79.83;92672.41;4994568;28;20038;-77
2021/05/10 02:15:20;;;;;;;7.70;4.85;;;;;;;11.89;79.54;92649.59;4991089;28;20046;-77
2021/05/10 02:17:45;;;;;;;7.47;4.38;;;;;;;11.92;78.20;92675.22;4983617;28;20539;-77
2021/05/10 02:20:11;;;;;;;6.57;4.18;;;;;;;11.95;78.51;92679.13;4978310;28;20133;-77
2021/05/10 02:22:38;;;;;;;7.25;4.38;;;;;;;11.98;78.60;92666.22;5011713;28;20060;-77
2021/05/10 02:25:05;;;;;;;9.18;4.55;;;;;;;11.95;79.81;92655.50;4994399;28;20037;-76
2021/05/10 02:27:32;;;;;;;6.72;4.20;;;;;;;11.95;79.11;92655.50;5008979;28;20061;-77
2021/05/10 02:29:58;;;;;;;7.80;4.00;;;;;;;11.95;78.48;92658.13;5012131;28;20040;-77
2021/05/10 02:32:24;;;;;;;7.30;4.60;;;;;;;11.93;78.22;92660.25;5012299;28;20041;-77
2021/05/10 02:34:49;;;;;;;6.70;4.53;;;;;;;11.91;78.38;92654.53;4990835;28;20110;-77
2021/05/10 02:37:16;;;;;;;7.30;4.70;;;;;;;11.90;78.89;92669.50;4990594;28;20066;-77
2021/05/10 02:39:42;;;;;;;8.13;4.55;;;;;;;11.87;78.27;92660.34;4992129;28;20121;-77
2021/05/10 02:42:08;;;;;;;9.60;4.10;;;;;;;11.86;78.47;92653.50;4974589;28;20105;-77
2021/05/10 02:44:33;;;;;;;7.00;4.10;;;;;;;11.86;78.16;92679.75;4958702;28;20027;-77
2021/05/10 02:46:59;;;;;;;7.47;4.25;;;;;;;11.86;78.13;92684.22;4990684;28;20461;-77
2021/05/10 02:49:24;;;;;;;6.63;4.18;;;;;;;11.86;78.05;92684.22;4974255;28;20034;-77
2021/05/10 02:51:50;;;;;;;6.00;3.88;;;;;;;11.85;78.02;92686.06;4955470;28;20085;-77
2021/05/10 02:54:16;;;;;;;7.90;4.75;;;;;;;11.85;78.78;92688.69;4991876;28;20101;-77
2021/05/10 02:56:41;;;;;;;7.47;4.80;;;;;;;11.85;78.82;92687.91;4987384;28;20042;-77
2021/05/10 02:59:07;;;;;;;8.43;4.70;;;;;;;11.84;78.43;92686.34;4989229;28;20030;-77
2021/05/10 03:01:32;;;;;;;7.57;4.20;;;;;;;11.83;78.32;92671.69;4972467;28;20035;-77
2021/05/10 03:03:58;;;;;;;7.60;4.47;;;;;;;11.81;79.73;92665.94;4971544;28;20406;-77
2021/05/10 03:06:24;;;;;;;7.18;4.35;;;;;;;11.81;79.13;92679.06;4989972;28;20046;-77
2021/05/10 03:08:49;;;;;;;8.65;4.50;;;;;;;11.79;78.30;92679.34;4958037;28;20034;-77
2021/05/10 03:11:15;;;;;;;6.68;4.38;;;;;;;11.79;78.21;92681.19;4987383;28;20042;-77
2021/05/10 03:13:41;;;;;;;7.65;4.20;;;;;;;11.78;78.07;92684.91;4970777;28;20421;-77
2021/05/10 03:16:07;;;;;;;8.43;4.57;;;;;;;11.77;78.25;92680.69;4987576;28;20712;-77
2021/05/10 03:18:32;;;;;;;6.10;4.43;;;;;;;11.77;78.37;92688.56;4991526;28;20118;-79
2021/05/10 03:20:58;;;;;;;7.43;4.30;;;;;;;11.73;78.14;92682.34;4972584;28;20061;-76
2021/05/10 03:23:23;;;;;;;7.43;4.43;;;;;;;11.74;78.06;92689.16;4954565;28;20039;-75
2021/05/10 03:25:49;;;;;;;7.75;3.95;;;;;;;11.75;77.88;92688.84;4987991;28;20039;-77
2021/05/10 03:28:15;;;;;;;8.40;4.55;;;;;;;11.76;78.14;92694.91;4954720;28;20027;-77
2021/05/10 03:30:40;;;;;;;7.43;4.43;;;;;;;11.77;78.50;92694.59;4971676;28;20046;-77
2021/05/10 03:33:07;;;;;;;9.18;4.90;;;;;;;11.78;78.10;92705.88;4973156;28;20328;-77
2021/05/10 03:35:33;;;;;;;8.43;4.20;;;;;;;11.76;78.39;92711.41;4995827;28;20056;-77
2021/05/10 03:37:59;;;;;;;7.95;4.57;;;;;;;11.76;77.79;92711.41;5011081;28;20127;-77
2021/05/10 03:40:25;;;;;;;6.38;4.32;;;;;;;11.75;77.54;92715.06;4992771;28;20069;-75
2021/05/10 03:42:50;;;;;;;6.82;4.28;;;;;;;11.74;77.18;92713.53;4976660;28;20037;-77
2021/05/10 03:45:17;;;;;;;8.48;4.43;;;;;;;11.72;77.18;92707.78;4981993;28;20046;-77
2021/05/10 03:47:43;;;;;;;9.35;5.22;;;;;;;11.72;77.37;92723.53;5005461;28;20030;-77
2021/05/10 03:50:29;;;;;;;10.70;4.65;;;;;;;11.71;78.64;92721.97;5010578;28;20068;-76
2021/05/10 03:52:55;;;;;;;8.48;4.32;;;;;;;11.69;79.09;92718.88;5008058;28;20064;-76
2021/05/10 03:55:23;;;;;;;7.50;4.50;;;;;;;11.63;79.08;92712.13;5000799;28;20034;-77
2021/05/10 03:57:49;;;;;;;8.88;4.65;;;;;;;11.64;79.37;92709.25;5008815;28;20512;-77
2021/05/10 04:00:17;;;;;;;7.88;4.78;;;;;;;11.65;81.07;92710.00;4988704;28;20036;-76
2021/05/10 04:02:44;;;;;;;8.80;4.70;;;;;;;11.63;80.90;92705.03;4992439;28;20041;-77
2021/05/10 04:15:46;;;;;;;10.38;4.97;;;;;;;11.54;82.28;92724.34;4999649;28;20046;-76
2021/05/10 04:18:12;;;;;;;10.18;5.10;;;;;;;11.54;81.73;92725.13;5005184;28;20163;-76
2021/05/10 04:20:38;;;;;;;8.88;5.07;;;;;;;11.55;82.49;92733.75;5004653;28;20038;-77
2021/05/10 04:23:04;;;;;;;8.13;4.78;;;;;;;11.57;81.61;92734.25;5004118;28;20033;-76
2021/05/10 04:25:30;;;;;;;9.40;5.13;;;;;;;11.59;82.05;92742.59;5003362;28;20041;-77
2021/05/10 04:27:56;;;;;;;7.13;5.38;;;;;;;11.60;81.69;92739.72;5010375;28;20038;-78
2021/05/10 04:30:22;;;;;;;10.57;5.88;;;;;;;11.61;80.87;92735.25;5002563;28;20095;-74
2021/05/10 04:32:47;;;;;;;9.70;6.07;;;;;;;11.62;80.86;92744.69;4975957;28;20037;-78
2021/05/10 04:35:13;;;;;;;9.90;5.93;;;;;;;11.66;80.44;92746.44;5011205;28;20467;-77
2021/05/10 04:37:39;;;;;;;9.18;5.30;;;;;;;11.67;79.89;92742.75;5011730;28;20038;-78
2021/05/10 04:40:06;;;;;;;7.25;4.93;;;;;;;11.69;79.83;92747.72;4991827;28;20112;-78
2021/05/10 04:42:33;;;;;;;8.35;5.78;;;;;;;11.70;80.42;92749.25;4996437;28;20443;-78
2021/05/10 04:45:00;;;;;;;10.50;5.40;;;;;;;11.68;80.94;92748.75;5009022;28;20057;-78
2021/05/10 04:47:36;;;;;;;7.07;5.10;;;;;;;11.69;80.75;92746.94;5015044;28;20053;-79
2021/05/10 04:50:09;;;;;;;11.38;5.10;;;;;;;11.67;80.74;92745.38;5007495;28;20030;-80
2021/05/10 04:52:38;;;;;;;6.97;4.68;;;;;;;11.66;80.83;92743.03;4987370;28;20506;-79
2021/05/10 04:55:05;;;;;;;6.72;5.07;;;;;;;11.65;82.02;92741.47;4994630;28;20058;-79
2021/05/10 04:57:31;;;;;;;9.13;4.90;;;;;;;11.67;81.60;92740.13;4995027;28;20064;-79
2021/05/10 04:59:57;;;;;;;8.20;5.30;;;;;;;11.67;81.74;92747.22;4988462;28;20046;-78
2021/05/10 05:02:42;;;;;;;7.90;4.88;;;;;;;11.70;81.61;92761.59;4981675;28;20097;-78
2021/05/10 05:05:10;;;;;;;9.27;5.00;;;;;;;11.70;81.21;92754.50;5004562;28;20030;-79
2021/05/10 05:07:36;;;;;;;8.73;4.90;;;;;;;11.72;81.17;92759.47;4992094;28;20068;-77
2021/05/10 05:10:02;;;;;;;9.27;5.07;;;;;;;11.78;80.92;92760.94;4994552;28;20038;-78
2021/05/10 05:12:28;;;;;;;8.23;4.75;;;;;;;11.79;81.45;92752.78;4990743;28;20030;-78
2021/05/10 05:14:55;;;;;;;10.85;5.10;;;;;;;11.83;81.29;92745.13;5032016;28;20038;-79
2021/05/10 05:17:20;;;;;;;7.00;4.70;;;;;;;11.88;81.60;92747.69;5015885;28;20096;-79
2021/05/10 05:19:46;;;;;;;7.63;4.80;;;;;;;11.97;81.15;92745.19;4989161;28;20030;-78
2021/05/10 05:22:11;;;;;;;6.97;4.43;;;;;;;12.05;80.16;92745.31;5012528;28;20472;-79
2021/05/10 05:24:37;;;;;;;9.93;4.63;;;;;;;12.16;79.52;92756.44;4993820;28;20496;-78
2021/05/10 05:27:03;;;;;;;6.10;4.25;;;;;;;12.20;79.46;92752.13;4993578;28;20575;-78
2021/05/10 05:29:29;;;;;;;8.75;4.55;;;;;;;12.22;80.21;92760.50;4979001;28;20105;-79
2021/05/10 05:31:56;;;;;;;7.22;4.57;;;;;;;12.26;81.27;92761.47;4992311;28;20034;-79
2021/05/10 05:34:22;;;;;;;8.48;5.05;;;;;;;12.29;80.28;92765.38;4985120;28;20809;-78
2021/05/10 05:36:48;;;;;;;7.15;4.68;;;;;;;12.32;80.34;92759.56;5014956;28;20523;-78
2021/05/10 05:39:14;;;;;;;8.43;4.30;;;;;;;12.32;80.93;92761.41;5015901;28;20038;-78
2021/05/10 05:41:40;;;;;;;6.78;4.43;;;;;;;12.33;80.49;92770.84;4980922;28;20514;-78
2021/05/10 05:44:06;;;;;;;8.52;4.20;;;;;;;12.32;79.98;92771.91;5016114;28;20120;-78
2021/05/10 05:46:39;;;;;;;6.20;4.03;;;;;;;12.30;79.10;92782.69;5016470;28;20052;-78
2021/05/10 05:49:05;;;;;;;7.25;4.10;;;;;;;12.27;80.29;92773.56;4998923;28;20042;-78
2021/05/10 05:51:31;;;;;;;7.35;4.30;;;;;;;12.28;80.34;92779.56;5011531;28;20037;-78
2021/05/10 05:53:57;;;;;;;9.82;4.30;;;;;;;12.26;79.57;92782.47;5001786;28;20125;-79
2021/05/10 05:56:23;;;;;;;5.80;3.85;;;;;;;12.26;78.98;92784.34;4998304;28;20069;-78
2021/05/10 05:58:49;;;;;;;7.30;4.18;;;;;;;12.28;78.72;92784.81;4992682;28;20030;-78
2021/05/10 06:01:16;;;;;;;7.75;4.25;;;;;;;12.30;78.50;92782.69;4981965;28;20041;-79
2021/05/10 06:03:41;;;;;;;5.80;4.05;;;;;;;12.31;78.60;92778.22;4994704;28;20042;-76
2021/05/10 06:06:08;;;;;;;6.55;4.00;;;;;;;12.36;77.25;92772.88;5005402;28;20052;-77
2021/05/10 06:08:34;;;;;;;6.45;4.22;;;;;;;12.39;77.21;92778.34;4991360;28;20045;-77
2021/05/10 06:11:01;;;;;;;7.30;4.40;;;;;;;12.46;79.49;92786.59;4992625;28;20333;-77
2021/05/10 06:13:27;;;;;;;8.52;4.30;;;;;;;12.56;79.13;92774.34;4994288;28;20038;-77
2021/05/10 06:15:52;;;;;;;7.97;4.10;;;;;;;12.54;78.34;92777.28;5002397;28;20044;-76
2021/05/10 06:18:18;;;;;;;5.22;3.80;;;;;;;12.46;78.74;92767.44;5008076;28;20034;-77
2021/05/10 06:20:44;;;;;;;7.72;3.80;;;;;;;12.31;78.99;92772.97;4989897;28;20034;-78
2021/05/10 06:23:09;;;;;;;7.53;4.47;;;;;;;12.26;79.48;92766.72;4980107;28;20373;-77
2021/05/10 06:25:35;;;;;;;7.50;4.30;;;;;;;12.25;80.47;92762.56;4995962;28;20109;-77
2021/05/10 06:28:01;;;;;;;7.72;4.35;;;;;;;12.27;80.51;92767.50;4986415;28;20129;-77
2021/05/10 06:30:26;;;;;;;6.70;4.13;;;;;;;12.28;80.13;92756.72;4988808;28;20042;-77
2021/05/10 06:32:53;;;;;;;6.57;3.95;;;;;;;12.31;79.69;92750.13;5009336;28;20046;-77
2021/05/10 06:35:20;;;;;;;7.03;4.40;;;;;;;12.32;80.55;92762.19;5009708;28;20060;-77
2021/05/10 06:37:45;;;;;;;7.40;4.68;;;;;;;12.33;81.39;92765.59;4992754;28;20113;-77
2021/05/10 06:40:11;;;;;;;8.77;4.10;;;;;;;12.32;80.96;92767.44;5009109;28;20061;-77
2021/05/10 06:42:37;;;;;;;5.72;3.80;;;;;;;12.37;79.87;92774.44;5011405;28;20041;-76
2021/05/10 06:45:06;;;;;;;6.90;3.67;;;;;;;12.28;79.98;92769.84;5011702;28;20061;-77
2021/05/10 06:47:32;;;;;;;5.82;3.80;;;;;;;12.20;79.98;92773.13;5009965;28;20037;-76
2021/05/10 06:49:58;;;;;;;6.25;4.00;;;;;;;12.16;80.12;92766.13;4993877;28;20045;-77
2021/05/10 06:52:24;;;;;;;6.28;3.80;;;;;;;12.18;80.76;92764.00;5011390;28;20400;-77
2021/05/10 06:54:49;;;;;;;8.73;4.05;;;;;;;12.20;81.34;92749.50;4992122;28;20089;-77
2021/05/10 06:57:15;;;;;;;6.32;3.60;;;;;;;12.21;80.64;92761.56;5011251;28;20049;-77
2021/05/10 06:59:42;;;;;;;5.22;3.65;;;;;;;12.11;80.38;92776.72;4977458;28;20034;-77
2021/05/10 07:02:07;;;;;;;5.57;3.80;;;;;;;12.16;79.94;92782.66;4994018;28;20038;-77
2021/05/10 07:04:33;;;;;;;6.13;4.00;;;;;;;12.16;80.68;92771.38;5010990;28;20049;-77
2021/05/10 07:06:59;;;;;;;8.18;3.70;;;;;;;12.11;81.47;92777.47;4977305;28;20029;-76
2021/05/10 07:09:24;;;;;;;8.68;4.10;;;;;;;12.05;79.06;92776.81;5011375;28;20133;-77
2021/05/10 07:11:50;;;;;;;10.45;3.90;;;;;;;12.04;79.08;92790.19;5010925;28;20112;-77
2021/05/10 07:14:16;;;;;;;6.72;4.00;;;;;;;12.01;78.69;92788.94;4993715;28;20038;-76
2021/05/10 07:16:42;;;;;;;5.43;3.60;;;;;;;12.02;78.74;92797.56;4977104;28;20544;-77
2021/05/10 07:19:08;;;;;;;7.00;3.72;;;;;;;12.02;78.49;92794.94;4991788;28;20433;-77
2021/05/10 07:21:34;;;;;;;5.57;3.55;;;;;;;12.05;78.06;92770.78;4989681;28;20267;-77
2021/05/10 07:24:00;;;;;;;6.25;3.63;;;;;;;12.12;77.93;92765.94;4989690;28;20041;-77
2021/05/10 07:26:25;;;;;;;5.55;3.53;;;;;;;12.21;78.38;92758.94;4991076;28;20441;-77
2021/05/10 07:28:51;;;;;;;7.82;3.78;;;;;;;12.34;78.53;92752.19;4976779;28;20073;-77
2021/05/10 07:31:17;;;;;;;6.15;3.70;;;;;;;12.44;77.86;92746.72;5010280;28;20046;-77
2021/05/10 07:33:42;;;;;;;12.10;4.18;;;;;;;12.54;78.07;92755.47;4995077;28;20456;-76
2021/05/10 07:36:09;;;;;;;8.35;3.90;;;;;;;12.48;78.82;92760.84;4957298;28;20053;-77
2021/05/10 07:38:36;;;;;;;6.90;3.72;;;;;;;12.45;76.73;92769.31;4990990;28;20042;-77
2021/05/10 07:41:01;;;;;;;4.88;3.10;;;;;;;12.33;73.49;92768.97;4990008;28;20060;-76
2021/05/10 07:43:27;;;;;;;6.38;3.15;;;;;;;12.32;74.63;92766.66;4973318;28;20038;-77
2021/05/10 07:45:53;;;;;;;7.63;3.15;;;;;;;12.37;75.21;92764.72;4961485;28;20069;-77
2021/05/10 07:48:19;;;;;;;5.03;3.08;;;;;;;12.45;74.32;92758.81;4970400;28;20148;-77
2021/05/10 07:50:44;;;;;;;5.65;3.22;;;;;;;12.53;73.82;92757.34;4977383;28;20529;-77
2021/05/10 07:53:10;;;;;;;5.93;3.35;;;;;;;12.62;75.19;92768.72;4987583;28;20034;-77
2021/05/10 07:55:38;;;;;;;5.05;2.80;;;;;;;12.66;73.21;92761.81;4973287;28;20057;-77
2021/05/10 07:58:04;;;;;;;6.10;3.30;;;;;;;12.80;74.01;92761.03;4990475;28;20066;-77
2021/05/10 08:00:32;;;;;;;6.43;3.13;;;;;;;13.00;74.46;92763.25;4991320;28;20061;-77
2021/05/10 08:03:06;;;;;;;5.53;2.80;;;;;;;13.01;70.92;92767.44;4990314;28;20097;-77
2021/05/10 08:05:32;;;;;;;4.85;2.72;;;;;;;12.91;69.86;92765.81;4990827;28;20050;-77
2021/05/10 08:07:58;;;;;;;6.13;2.60;;;;;;;12.93;69.74;92772.63;4971767;28;20129;-77
2021/05/10 08:10:24;;;;;;;4.65;2.50;;;;;;;12.98;69.70;92760.16;4973141;28;20042;-77
2021/05/10 08:12:49;;;;;;;5.03;2.75;;;;;;;13.03;69.72;92764.53;4972715;28;20034;-77
2021/05/10 08:15:16;;;;;;;4.97;2.65;;;;;;;13.05;68.98;92759.75;4973764;28;20040;-77
2021/05/10 08:17:42;;;;;;;5.85;2.70;;;;;;;13.25;70.24;92737.53;4990599;28;20045;-77
2021/05/10 08:20:08;;;;;;;5.57;2.67;;;;;;;13.59;70.03;92725.75;4990367;28;20042;-77
2021/05/10 08:22:34;;;;;;;5.30;2.65;;;;;;;14.49;68.73;92721.16;4991057;28;20100;-77
2021/05/10 08:25:00;;;;;;;6.00;2.80;;;;;;;15.48;64.87;92718.16;4983330;28;20039;-78
2021/05/10 08:27:26;;;;;;;5.63;3.75;;;;;;;15.58;69.25;92723.13;4971645;28;20126;-77
2021/05/10 08:29:52;;;;;;;7.20;4.43;;;;;;;14.91;75.59;92726.16;4990839;28;20146;-77
2021/05/10 08:32:18;;;;;;;6.03;4.47;;;;;;;14.02;79.18;92727.91;4990175;28;20485;-77
2021/05/10 08:34:44;;;;;;;7.35;4.57;;;;;;;14.16;78.65;92733.84;4992664;28;20061;-76
2021/05/10 08:37:09;;;;;;;9.50;4.70;;;;;;;14.01;78.92;92721.09;4992802;28;20038;-76
2021/05/10 08:39:35;;;;;;;8.60;5.10;;;;;;;13.92;79.61;92719.19;5009998;28;20042;-77
2021/05/10 08:42:00;;;;;;;8.25;5.18;;;;;;;13.59;81.46;92718.66;5010319;28;20034;-77
2021/05/10 08:44:26;;;;;;;8.55;4.88;;;;;;;13.56;80.23;92714.00;5009742;28;20046;-77
2021/05/10 08:46:53;;;;;;;9.05;5.32;;;;;;;13.64;80.00;92707.22;4974205;28;20499;-77
2021/05/10 08:49:21;;;;;;;9.02;5.15;;;;;;;13.75;79.30;92704.06;5009433;28;20029;-77
2021/05/10 08:51:48;;;;;;;7.72;5.38;;;;;;;13.70;79.97;92706.81;5006444;28;20057;-76
2021/05/10 08:54:25;;;;;;;9.77;5.40;;;;;;;13.69;79.31;92704.47;4989071;28;20112;-77
2021/05/10 08:56:55;;;;;;;8.45;4.43;;;;;;;14.01;76.74;92713.22;4986597;28;20045;-78
2021/05/10 08:59:22;;;;;;;6.53;4.60;;;;;;;14.15;77.22;92708.63;4995456;28;20034;-77
2021/05/10 09:02:00;;;;;;;5.53;3.28;;;;;;;14.21;73.03;92702.16;5034401;28;20037;-78
2021/05/10 09:04:34;;;;;;;6.38;2.75;;;;;;;14.02;69.29;92701.59;5000801;28;20120;-78
2021/05/10 09:07:20;;;;;;;5.22;2.47;;;;;;;14.00;69.84;92707.16;4997322;28;20533;-78
2021/05/10 09:09:56;;;;;;;5.78;2.45;;;;;;;14.11;68.51;92705.03;4999717;28;20025;-77
2021/05/10 09:12:23;;;;;;;5.55;2.53;;;;;;;14.21;68.91;92709.25;4994894;28;20521;-77
2021/05/10 09:14:50;;;;;;;5.15;2.47;;;;;;;14.27;66.95;92698.28;4996010;28;20062;-76
2021/05/10 09:17:17;;;;;;;10.02;2.90;;;;;;;14.46;68.15;92710.47;4993033;28;20039;-78
2021/05/10 09:19:44;;;;;;;5.47;2.92;;;;;;;14.37;68.55;92705.16;5014394;28;20026;-77
2021/05/10 09:22:10;;;;;;;4.50;2.70;;;;;;;14.51;67.49;92712.97;5013991;28;20072;-77
2021/05/10 09:24:50;;;;;;;4.45;2.55;;;;;;;14.65;66.26;92708.38;5008162;28;20038;-78
2021/05/10 09:27:29;;;;;;;5.70;2.70;;;;;;;14.77;67.49;92703.31;4996756;28;20041;-78
2021/05/10 09:30:13;;;;;;;4.28;2.60;;;;;;;14.92;66.60;92706.59;5008851;28;20089;-78
2021/05/10 09:32:39;;;;;;;5.63;2.78;;;;;;;14.99;66.37;92701.66;5002907;28;20069;-79
2021/05/10 09:35:33;;;;;;;5.82;2.60;;;;;;;15.31;65.35;92697.81;5014838;28;20053;-78
2021/05/10 09:38:01;;;;;;;6.13;2.72;;;;;;;15.43;65.60;92699.06;5017268;28;20117;-79
2021/05/10 09:40:37;;;;;;;5.60;3.00;;;;;;;15.47;64.16;92702.63;5017771;28;20070;-79
2021/05/10 09:43:03;;;;;;;4.47;2.70;;;;;;;15.13;64.77;92704.94;5000869;28;20038;-79
2021/05/10 09:45:39;;;;;;;4.88;2.80;;;;;;;14.83;64.73;92713.72;5019412;28;20040;-78
2021/05/10 09:48:16;;;;;;;6.28;2.85;;;;;;;14.63;64.51;92715.03;5014611;28;20045;-78
2021/05/10 09:50:44;;;;;;;6.22;2.85;;;;;;;14.62;64.91;92718.78;4983611;28;20045;-77
2021/05/10 09:53:16;;;;;;;5.57;2.58;;;;;;;14.69;65.33;92709.34;5014430;28;20041;-77
2021/05/10 09:55:55;;;;;;;5.32;2.58;;;;;;;14.64;63.21;92712.13;5001209;28;20038;-79
2021/05/10 09:58:22;;;;;;;5.03;2.60;;;;;;;14.64;62.94;92712.13;4981753;28;20034;-77
2021/05/10 10:00:57;;;;;;;5.22;2.63;;;;;;;14.07;64.92;92719.88;5015282;28;20480;-78
2021/05/10 10:03:28;;;;;;;4.95;2.88;;;;;;;14.23;64.85;92715.81;5001948;28;20128;-78
2021/05/10 10:05:57;;;;;;;4.70;2.83;;;;;;;14.41;63.78;92715.84;5018732;28;20121;-78
2021/05/10 10:08:23;;;;;;;5.72;2.80;;;;;;;13.85;66.41;92718.84;5007373;28;20331;-78
2021/05/10 10:10:49;;;;;;;4.63;2.80;;;;;;;13.90;67.77;92716.06;5019360;28;20468;-78
2021/05/10 10:13:16;;;;;;;5.45;2.67;;;;;;;13.73;66.70;92731.75;5019471;28;20021;-78
2021/05/10 10:15:44;;;;;;;5.30;2.60;;;;;;;13.74;66.99;92738.56;4999850;28;20042;-77
2021/05/10 10:18:10;;;;;;;6.00;2.70;;;;;;;13.74;66.88;92735.94;4984941;28;20014;-77
2021/05/10 10:20:38;;;;;;;4.93;2.45;;;;;;;13.47;66.43;92734.97;5010237;28;20046;-78
2021/05/10 10:23:07;;;;;;;4.07;2.40;;;;;;;13.41;67.06;92736.16;4995127;28;20034;-78
2021/05/10 10:25:35;;;;;;;4.65;2.60;;;;;;;13.32;67.40;92737.94;5001509;28;20030;-78
2021/05/10 10:28:04;;;;;;;5.30;2.78;;;;;;;13.08;68.87;92753.91;5000160;28;20113;-78
2021/05/10 10:30:32;;;;;;;5.03;2.75;;;;;;;12.89;69.21;92741.66;5021084;28;20491;-78
2021/05/10 10:33:01;;;;;;;5.68;2.63;;;;;;;12.90;70.88;92752.94;5015746;28;20038;-78
2021/05/10 10:35:28;;;;;;;5.30;3.03;;;;;;;12.95;70.96;92755.50;5012425;28;20053;-77
2021/05/10 10:37:54;;;;;;;8.70;3.08;;;;;;;12.88;71.39;92742.75;4995257;28;20037;-76
2021/05/10 10:40:21;;;;;;;4.25;2.67;;;;;;;12.83;71.96;92736.81;5012943;28;20029;-77
2021/05/10 10:42:48;;;;;;;8.15;3.63;;;;;;;12.81;72.61;92736.31;5006614;28;20033;-78
2021/05/10 10:45:22;;;;;;;6.05;3.10;;;;;;;12.82;73.01;92736.03;5006944;28;20070;-78
2021/05/10 10:47:58;;;;;;;5.22;2.95;;;;;;;12.86;73.18;92736.25;4995292;28;20416;-78
2021/05/10 10:50:25;;;;;;;6.65;3.03;;;;;;;12.86;72.24;92731.75;4982785;28;20416;-78
2021/05/10 10:52:56;;;;;;;6.32;3.28;;;;;;;12.89;72.28;92730.38;4995945;28;20038;-78
2021/05/10 10:55:38;;;;;;;9.73;4.40;;;;;;;12.97;72.97;92719.19;4996928;28;20054;-76
2021/05/10 10:58:21;;;;;;;6.00;3.33;;;;;;;13.02;70.03;92728.81;4991527;28;20037;-78
2021/05/10 11:00:56;;;;;;;5.88;3.47;;;;;;;13.10;71.04;92723.66;4999816;28;20065;-79
2021/05/10 11:03:26;;;;;;;8.45;4.35;;;;;;;13.17;71.29;92706.69;4992475;28;20045;-79
2021/05/10 11:05:52;;;;;;;5.72;3.30;;;;;;;13.23;71.43;92714.16;4988840;28;20034;-79
2021/05/10 11:08:37;;;;;;;7.07;3.15;;;;;;;13.21;72.94;92726.03;4980929;28;20041;-79
2021/05/10 11:11:03;;;;;;;6.75;3.10;;;;;;;13.20;73.49;92716.63;4997638;28;20073;-78
2021/05/10 11:13:29;;;;;;;6.05;3.75;;;;;;;13.18;71.42;92721.38;4996934;28;20476;-77
2021/05/10 11:15:58;;;;;;;6.40;3.50;;;;;;;13.11;71.23;92722.56;5007579;28;20033;-78
2021/05/10 11:18:47;;;;;;;5.85;2.70;;;;;;;12.89;73.40;92725.13;4978123;28;20073;-77
2021/05/10 11:21:22;;;;;;;5.35;2.97;;;;;;;12.81;73.56;92728.44;5011498;28;20101;-77
2021/05/10 11:24:05;;;;;;;5.80;3.50;;;;;;;12.75;73.27;92727.00;4993273;28;20045;-78
2021/05/10 11:26:45;;;;;;;6.55;3.00;;;;;;;12.74;73.76;92730.69;4991598;28;20046;-78
2021/05/10 11:29:33;;;;;;;5.28;2.97;;;;;;;12.76;74.44;92733.81;4994842;28;20038;-79
2021/05/10 11:32:07;;;;;;;7.78;3.30;;;;;;;12.64;74.10;92732.44;4994119;28;20050;-78
2021/05/10 11:34:36;;;;;;;4.65;2.72;;;;;;;12.65;73.65;92731.38;5010314;28;20491;-79
2021/05/10 11:37:04;;;;;;;5.03;2.90;;;;;;;12.73;74.08;92710.75;5005972;28;20041;-78
2021/05/10 11:39:31;;;;;;;5.32;2.88;;;;;;;12.88;73.33;92698.09;4982627;28;20101;-78
2021/05/10 11:42:02;;;;;;;5.05;2.83;;;;;;;13.09;73.44;92679.25;5013227;28;20113;-78
2021/05/10 11:44:37;;;;;;;5.05;2.85;;;;;;;13.34;72.69;92675.31;4994980;28;20041;-77
2021/05/10 11:47:05;;;;;;;5.18;3.28;;;;;;;13.58;70.94;92672.41;4996431;28;20510;-77
2021/05/10 11:49:39;;;;;;;5.10;2.67;;;;;;;13.88;70.30;92668.22;4993545;28;20021;-77